Austin Bergstrom International Airport
KAUS : rendu visible

Aérodrome :











RETROUVEZ-NOUS SUR...

 
LOGIN :

S'inscrire | Disclaimer

   EN    FR    IT 

 









Légende :    VFR   VFR Marginal   IFR   IFR Intensif   IFR Très Intensif
Visi : 
Plafond : 
>= 8 km
>= 3000ft
5 à 8 km
1000 à 3000 ft
1500m à 5 km
500 à 1000 ft
800 à 1500m
200 à 500 ft
< 800m
< 200 ft
Symboles :   Orages  Brouillard  Fortes neiges  Fortes précipitations  Vent > 20 kt






- Altitude de l'aérodrome : 542 ft
- Code IATA : AUS


KAUS - Austin Bergstrom International

DERNIER METAR :
  • 191653Z 23008G17KT 10SM SCT027 29/21 A2979 RMK AO2 SLP080 T02890211 $

METARs EXPIRÉS :
  • 191614Z 20009KT 10SM SCT022 SCT100 28/21 A2979 RMK AO2 T02780211 $
  • 191553Z 20010KT 10SM FEW011 BKN020 28/21 A2979 RMK AO2 SLP081 T02780211 $
  • 191521Z 20009KT 10SM FEW012 SCT024 26/21 A2980 RMK AO2 T02560211 $
  • 191458Z 22005KT 10SM SCT011 OVC024 25/21 A2980 RMK AO2 T02500206 $
  • 191453Z 21005KT 10SM BKN013 OVC024 24/21 A2980 RMK AO2 SLP085 T02440206 53012 $

TAF KAUS
Valide du 19 à 18h jusqu'au 21 à 00h UTC


191731Z 1918/2024 23008KT P6SM FEW050
FM192300 35005KT P6SM FEW050
FM201300 VRB05KT P6SM BKN022
FM201800 19011KT P6SM BKN035



MET'MAP, la Météo Aéronautique d'un coup d'oeil ! - Copyright ORBIFLY Décembre 2007 - Disclaimer

ORBIFLY MET'MAP TEAM :

Programmation & Développement : Alexandra Zaïnal
Conception & Développement : Baudouin d'Aumeries
Co-Programmation & Développement : Marc-Olivier Méhu
Soutien technique & logistique : Manuel Goepfert

Contact : metmap@orbifly.com




SOURCES & CREDITS :

   NOAA       Earth
Advisory